North Hudson, New York
Current Conditions -  °F | °C
As of 3:15 AM on Tuesday 27 Jan 2015 (Local Time) from K6B0 Reporting Station
Clear Clear  
Wind Chill: -7°   Ceiling: Unl
Heat Index:   Visibility: 10mi
Dew Point:   Wind: 9mph
Humidity: 78%   Direction: 350°N
Pressure: 29.89"   Gusts: NA
Location:  43.95°N, 73.73°W
Report Text: K6B0 270815Z AUTO 35008KT 10SM CLR M14/M17 A2989 RMK AO2 T11421173
Loading
Personal Weather Stations






























Interactive Weather Map New forecast layout! Learn more

10-Day Weather Forecast

Advertisements
Track Severe Weather on mobile